sensor_id;sensor_type;location;lat;lon;timestamp;P1;durP1;ratioP1;P2;durP2;ratioP2
3916;SDS011;1973;50.518;7.318;2022-12-18T00:01:16;50.73;;;23.40;;
3916;SDS011;1973;50.518;7.318;2022-12-18T00:03:54;66.93;;;29.43;;
3916;SDS011;1973;50.518;7.318;2022-12-18T00:06:23;66.77;;;33.70;;
3916;SDS011;1973;50.518;7.318;2022-12-18T00:08:50;48.43;;;22.90;;
3916;SDS011;1973;50.518;7.318;2022-12-18T00:11:22;56.57;;;27.63;;
3916;SDS011;1973;50.518;7.318;2022-12-18T00:13:50;55.27;;;27.00;;
3916;SDS011;1973;50.518;7.318;2022-12-18T00:16:18;52.30;;;28.63;;
3916;SDS011;1973;50.518;7.318;2022-12-18T00:18:47;45.90;;;22.70;;
3916;SDS011;1973;50.518;7.318;2022-12-18T00:21:18;51.30;;;22.83;;
3916;SDS011;1973;50.518;7.318;2022-12-18T00:23:46;43.67;;;20.00;;
3916;SDS011;1973;50.518;7.318;2022-12-18T00:26:15;44.60;;;22.63;;
3916;SDS011;1973;50.518;7.318;2022-12-18T00:28:43;46.97;;;21.07;;
3916;SDS011;1973;50.518;7.318;2022-12-18T00:31:11;48.03;;;23.30;;
3916;SDS011;1973;50.518;7.318;2022-12-18T00:33:40;41.40;;;22.27;;
3916;SDS011;1973;50.518;7.318;2022-12-18T00:36:11;41.57;;;20.83;;
3916;SDS011;1973;50.518;7.318;2022-12-18T00:38:40;46.77;;;20.77;;
3916;SDS011;1973;50.518;7.318;2022-12-18T00:41:07;49.37;;;25.93;;
3916;SDS011;1973;50.518;7.318;2022-12-18T00:43:35;40.13;;;20.70;;
3916;SDS011;1973;50.518;7.318;2022-12-18T00:46:02;47.03;;;20.40;;
3916;SDS011;1973;50.518;7.318;2022-12-18T00:48:30;42.17;;;23.17;;
3916;SDS011;1973;50.518;7.318;2022-12-18T00:50:56;36.57;;;20.83;;
3916;SDS011;1973;50.518;7.318;2022-12-18T00:53:23;43.33;;;19.90;;
3916;SDS011;1973;50.518;7.318;2022-12-18T00:55:49;36.03;;;17.90;;
3916;SDS011;1973;50.518;7.318;2022-12-18T00:58:16;38.40;;;18.73;;
3916;SDS011;1973;50.518;7.318;2022-12-18T01:00:43;46.47;;;20.83;;
3916;SDS011;1973;50.518;7.318;2022-12-18T01:03:10;46.43;;;21.20;;
3916;SDS011;1973;50.518;7.318;2022-12-18T01:05:40;39.70;;;19.10;;
3916;SDS011;1973;50.518;7.318;2022-12-18T01:08:07;43.20;;;21.33;;
3916;SDS011;1973;50.518;7.318;2022-12-18T01:10:33;39.13;;;19.60;;
3916;SDS011;1973;50.518;7.318;2022-12-18T01:13:00;46.07;;;20.73;;
3916;SDS011;1973;50.518;7.318;2022-12-18T01:15:26;41.90;;;20.10;;
3916;SDS011;1973;50.518;7.318;2022-12-18T01:17:53;36.53;;;20.27;;
3916;SDS011;1973;50.518;7.318;2022-12-18T01:20:20;49.03;;;21.70;;
3916;SDS011;1973;50.518;7.318;2022-12-18T01:22:46;41.53;;;19.13;;
3916;SDS011;1973;50.518;7.318;2022-12-18T01:25:13;49.53;;;22.23;;
3916;SDS011;1973;50.518;7.318;2022-12-18T01:27:39;44.87;;;21.33;;
3916;SDS011;1973;50.518;7.318;2022-12-18T01:30:06;43.07;;;19.67;;
3916;SDS011;1973;50.518;7.318;2022-12-18T01:32:33;43.60;;;20.47;;
3916;SDS011;1973;50.518;7.318;2022-12-18T01:35:00;41.77;;;22.27;;
3916;SDS011;1973;50.518;7.318;2022-12-18T01:37:26;40.03;;;19.50;;
3916;SDS011;1973;50.518;7.318;2022-12-18T01:39:53;40.40;;;20.77;;
3916;SDS011;1973;50.518;7.318;2022-12-18T01:42:20;43.60;;;19.27;;
3916;SDS011;1973;50.518;7.318;2022-12-18T01:52:42;50.47;;;24.10;;
3916;SDS011;1973;50.518;7.318;2022-12-18T01:55:12;40.90;;;20.87;;
3916;SDS011;1973;50.518;7.318;2022-12-18T01:57:42;47.83;;;22.10;;
3916;SDS011;1973;50.518;7.318;2022-12-18T02:00:11;40.67;;;20.73;;
3916;SDS011;1973;50.518;7.318;2022-12-18T02:02:41;39.83;;;19.60;;
3916;SDS011;1973;50.518;7.318;2022-12-18T02:05:10;42.57;;;21.47;;
3916;SDS011;1973;50.518;7.318;2022-12-18T02:07:52;43.43;;;19.63;;
3916;SDS011;1973;50.518;7.318;2022-12-18T02:13:12;43.23;;;20.60;;
3916;SDS011;1973;50.518;7.318;2022-12-18T02:18:35;40.43;;;19.07;;
3916;SDS011;1973;50.518;7.318;2022-12-18T02:26:30;35.63;;;18.63;;
3916;SDS011;1973;50.518;7.318;2022-12-18T02:29:05;42.73;;;20.03;;
3916;SDS011;1973;50.518;7.318;2022-12-18T02:31:38;45.40;;;19.73;;
3916;SDS011;1973;50.518;7.318;2022-12-18T02:34:10;30.57;;;17.20;;
3916;SDS011;1973;50.518;7.318;2022-12-18T02:36:40;44.60;;;20.87;;
3916;SDS011;1973;50.518;7.318;2022-12-18T02:39:10;40.33;;;19.03;;
3916;SDS011;1973;50.518;7.318;2022-12-18T02:41:39;40.70;;;19.27;;
3916;SDS011;1973;50.518;7.318;2022-12-18T02:44:07;38.00;;;17.80;;
3916;SDS011;1973;50.518;7.318;2022-12-18T02:46:51;44.23;;;19.37;;
3916;SDS011;1973;50.518;7.318;2022-12-18T02:49:26;48.53;;;18.60;;
3916;SDS011;1973;50.518;7.318;2022-12-18T02:52:24;37.30;;;19.30;;
3916;SDS011;1973;50.518;7.318;2022-12-18T02:57:44;40.37;;;19.40;;
3916;SDS011;1973;50.518;7.318;2022-12-18T03:00:18;42.80;;;20.03;;
3916;SDS011;1973;50.518;7.318;2022-12-18T03:02:59;40.53;;;19.13;;
3916;SDS011;1973;50.518;7.318;2022-12-18T03:05:33;36.73;;;19.40;;
3916;SDS011;1973;50.518;7.318;2022-12-18T03:08:27;40.20;;;20.13;;
3916;SDS011;1973;50.518;7.318;2022-12-18T03:13:35;38.27;;;18.77;;
3916;SDS011;1973;50.518;7.318;2022-12-18T03:16:15;42.83;;;21.07;;
3916;SDS011;1973;50.518;7.318;2022-12-18T03:18:51;41.80;;;19.47;;
3916;SDS011;1973;50.518;7.318;2022-12-18T03:21:26;35.30;;;17.57;;
3916;SDS011;1973;50.518;7.318;2022-12-18T03:24:07;33.07;;;16.17;;
3916;SDS011;1973;50.518;7.318;2022-12-18T03:26:36;36.30;;;16.67;;
3916;SDS011;1973;50.518;7.318;2022-12-18T03:29:07;41.20;;;18.60;;
3916;SDS011;1973;50.518;7.318;2022-12-18T03:31:40;37.40;;;19.30;;
3916;SDS011;1973;50.518;7.318;2022-12-18T03:34:12;39.90;;;19.10;;
3916;SDS011;1973;50.518;7.318;2022-12-18T03:36:41;38.80;;;18.63;;
3916;SDS011;1973;50.518;7.318;2022-12-18T03:39:08;41.10;;;18.23;;
3916;SDS011;1973;50.518;7.318;2022-12-18T03:41:38;44.97;;;20.60;;
3916;SDS011;1973;50.518;7.318;2022-12-18T03:44:12;33.70;;;17.30;;
3916;SDS011;1973;50.518;7.318;2022-12-18T03:49:43;42.00;;;18.50;;
3916;SDS011;1973;50.518;7.318;2022-12-18T03:52:20;31.77;;;17.90;;
3916;SDS011;1973;50.518;7.318;2022-12-18T03:55:02;34.30;;;16.20;;
3916;SDS011;1973;50.518;7.318;2022-12-18T03:57:31;34.63;;;17.50;;
3916;SDS011;1973;50.518;7.318;2022-12-18T04:00:04;37.43;;;18.17;;
3916;SDS011;1973;50.518;7.318;2022-12-18T04:02:34;43.73;;;18.17;;
3916;SDS011;1973;50.518;7.318;2022-12-18T04:05:05;42.40;;;19.17;;
3916;SDS011;1973;50.518;7.318;2022-12-18T04:07:33;43.00;;;18.73;;
3916;SDS011;1973;50.518;7.318;2022-12-18T04:10:00;40.73;;;18.93;;
3916;SDS011;1973;50.518;7.318;2022-12-18T04:12:29;39.20;;;19.13;;
3916;SDS011;1973;50.518;7.318;2022-12-18T04:14:56;37.13;;;18.00;;
3916;SDS011;1973;50.518;7.318;2022-12-18T04:17:22;42.30;;;17.30;;
3916;SDS011;1973;50.518;7.318;2022-12-18T04:19:49;42.90;;;18.10;;
3916;SDS011;1973;50.518;7.318;2022-12-18T04:22:16;38.70;;;19.13;;
3916;SDS011;1973;50.518;7.318;2022-12-18T04:24:43;32.17;;;17.60;;
3916;SDS011;1973;50.518;7.318;2022-12-18T04:27:09;41.10;;;16.97;;
3916;SDS011;1973;50.518;7.318;2022-12-18T04:29:35;37.13;;;16.90;;
3916;SDS011;1973;50.518;7.318;2022-12-18T04:32:02;36.90;;;18.00;;
3916;SDS011;1973;50.518;7.318;2022-12-18T04:34:28;39.90;;;19.30;;
3916;SDS011;1973;50.518;7.318;2022-12-18T04:36:55;39.80;;;18.30;;
3916;SDS011;1973;50.518;7.318;2022-12-18T04:39:22;32.30;;;16.03;;
3916;SDS011;1973;50.518;7.318;2022-12-18T04:41:49;36.17;;;18.00;;
3916;SDS011;1973;50.518;7.318;2022-12-18T04:44:16;29.73;;;15.43;;
3916;SDS011;1973;50.518;7.318;2022-12-18T04:46:42;47.13;;;19.47;;
3916;SDS011;1973;50.518;7.318;2022-12-18T04:49:09;45.77;;;18.97;;
3916;SDS011;1973;50.518;7.318;2022-12-18T04:51:39;37.87;;;17.87;;
3916;SDS011;1973;50.518;7.318;2022-12-18T04:54:05;31.90;;;15.23;;
3916;SDS011;1973;50.518;7.318;2022-12-18T04:56:32;34.67;;;17.27;;
3916;SDS011;1973;50.518;7.318;2022-12-18T04:58:58;25.93;;;14.13;;
3916;SDS011;1973;50.518;7.318;2022-12-18T05:01:24;28.50;;;14.00;;
3916;SDS011;1973;50.518;7.318;2022-12-18T05:03:59;29.87;;;14.30;;
3916;SDS011;1973;50.518;7.318;2022-12-18T05:06:25;26.23;;;13.77;;
3916;SDS011;1973;50.518;7.318;2022-12-18T05:08:52;33.13;;;15.10;;
3916;SDS011;1973;50.518;7.318;2022-12-18T05:11:18;33.00;;;16.80;;
3916;SDS011;1973;50.518;7.318;2022-12-18T05:13:45;30.93;;;16.93;;
3916;SDS011;1973;50.518;7.318;2022-12-18T05:16:11;37.57;;;17.00;;
3916;SDS011;1973;50.518;7.318;2022-12-18T05:18:39;29.63;;;14.90;;
3916;SDS011;1973;50.518;7.318;2022-12-18T05:21:05;31.03;;;15.07;;
3916;SDS011;1973;50.518;7.318;2022-12-18T05:23:32;30.73;;;15.30;;
3916;SDS011;1973;50.518;7.318;2022-12-18T05:25:59;32.13;;;15.10;;
3916;SDS011;1973;50.518;7.318;2022-12-18T05:28:28;33.43;;;15.77;;
3916;SDS011;1973;50.518;7.318;2022-12-18T05:30:57;33.93;;;16.43;;
3916;SDS011;1973;50.518;7.318;2022-12-18T05:33:25;27.30;;;16.40;;
3916;SDS011;1973;50.518;7.318;2022-12-18T05:35:56;38.17;;;16.43;;
3916;SDS011;1973;50.518;7.318;2022-12-18T05:38:24;32.13;;;16.83;;
3916;SDS011;1973;50.518;7.318;2022-12-18T05:40:52;35.00;;;16.37;;
3916;SDS011;1973;50.518;7.318;2022-12-18T05:43:20;33.43;;;16.07;;
3916;SDS011;1973;50.518;7.318;2022-12-18T05:45:50;37.53;;;16.17;;
3916;SDS011;1973;50.518;7.318;2022-12-18T05:48:17;31.33;;;15.80;;
3916;SDS011;1973;50.518;7.318;2022-12-18T05:50:44;32.33;;;16.00;;
3916;SDS011;1973;50.518;7.318;2022-12-18T05:53:13;32.73;;;15.13;;
3916;SDS011;1973;50.518;7.318;2022-12-18T05:55:41;34.17;;;17.10;;
3916;SDS011;1973;50.518;7.318;2022-12-18T05:58:08;35.63;;;17.10;;
3916;SDS011;1973;50.518;7.318;2022-12-18T06:00:37;27.57;;;17.23;;
3916;SDS011;1973;50.518;7.318;2022-12-18T06:03:09;33.90;;;17.13;;
3916;SDS011;1973;50.518;7.318;2022-12-18T06:05:43;34.40;;;17.33;;
3916;SDS011;1973;50.518;7.318;2022-12-18T06:08:11;33.97;;;15.27;;
3916;SDS011;1973;50.518;7.318;2022-12-18T06:10:39;35.27;;;16.30;;
3916;SDS011;1973;50.518;7.318;2022-12-18T06:13:06;34.73;;;17.77;;
3916;SDS011;1973;50.518;7.318;2022-12-18T06:15:35;33.37;;;16.80;;
3916;SDS011;1973;50.518;7.318;2022-12-18T06:18:02;31.93;;;15.70;;
3916;SDS011;1973;50.518;7.318;2022-12-18T06:20:29;38.27;;;17.43;;
3916;SDS011;1973;50.518;7.318;2022-12-18T06:22:59;37.07;;;18.63;;
3916;SDS011;1973;50.518;7.318;2022-12-18T06:25:25;33.97;;;14.90;;
3916;SDS011;1973;50.518;7.318;2022-12-18T06:27:52;32.23;;;17.17;;
3916;SDS011;1973;50.518;7.318;2022-12-18T06:30:19;31.57;;;16.93;;
3916;SDS011;1973;50.518;7.318;2022-12-18T06:32:45;28.40;;;15.53;;
3916;SDS011;1973;50.518;7.318;2022-12-18T06:35:18;37.00;;;17.13;;
3916;SDS011;1973;50.518;7.318;2022-12-18T06:37:46;32.53;;;16.77;;
3916;SDS011;1973;50.518;7.318;2022-12-18T06:40:12;34.43;;;16.17;;
3916;SDS011;1973;50.518;7.318;2022-12-18T06:42:39;28.83;;;13.87;;
3916;SDS011;1973;50.518;7.318;2022-12-18T06:45:05;29.17;;;14.77;;
3916;SDS011;1973;50.518;7.318;2022-12-18T06:47:32;22.33;;;12.80;;
3916;SDS011;1973;50.518;7.318;2022-12-18T06:49:59;26.00;;;14.50;;
3916;SDS011;1973;50.518;7.318;2022-12-18T06:52:25;29.97;;;15.23;;
3916;SDS011;1973;50.518;7.318;2022-12-18T06:54:51;26.63;;;13.50;;
3916;SDS011;1973;50.518;7.318;2022-12-18T06:57:18;28.60;;;13.57;;
3916;SDS011;1973;50.518;7.318;2022-12-18T06:59:44;27.50;;;12.13;;
3916;SDS011;1973;50.518;7.318;2022-12-18T07:02:11;34.50;;;14.80;;
3916;SDS011;1973;50.518;7.318;2022-12-18T07:04:39;26.83;;;14.07;;
3916;SDS011;1973;50.518;7.318;2022-12-18T07:07:05;28.77;;;13.67;;
3916;SDS011;1973;50.518;7.318;2022-12-18T07:09:32;26.03;;;15.03;;
3916;SDS011;1973;50.518;7.318;2022-12-18T07:11:58;26.43;;;13.63;;
3916;SDS011;1973;50.518;7.318;2022-12-18T07:14:25;32.87;;;16.07;;
3916;SDS011;1973;50.518;7.318;2022-12-18T07:16:51;29.33;;;15.40;;
3916;SDS011;1973;50.518;7.318;2022-12-18T07:19:18;31.30;;;15.53;;
3916;SDS011;1973;50.518;7.318;2022-12-18T07:21:44;30.37;;;15.70;;
3916;SDS011;1973;50.518;7.318;2022-12-18T07:24:11;34.07;;;15.80;;
3916;SDS011;1973;50.518;7.318;2022-12-18T07:26:37;34.87;;;17.67;;
3916;SDS011;1973;50.518;7.318;2022-12-18T07:29:04;28.70;;;15.37;;
3916;SDS011;1973;50.518;7.318;2022-12-18T07:31:30;34.53;;;16.80;;
3916;SDS011;1973;50.518;7.318;2022-12-18T07:33:57;34.73;;;18.00;;
3916;SDS011;1973;50.518;7.318;2022-12-18T07:36:23;46.80;;;20.53;;
3916;SDS011;1973;50.518;7.318;2022-12-18T07:38:50;38.40;;;18.67;;
3916;SDS011;1973;50.518;7.318;2022-12-18T07:41:18;42.90;;;20.90;;
3916;SDS011;1973;50.518;7.318;2022-12-18T07:43:45;32.80;;;17.17;;
3916;SDS011;1973;50.518;7.318;2022-12-18T07:46:12;35.07;;;17.90;;
3916;SDS011;1973;50.518;7.318;2022-12-18T07:48:41;36.03;;;17.47;;
3916;SDS011;1973;50.518;7.318;2022-12-18T07:51:11;40.30;;;19.83;;
3916;SDS011;1973;50.518;7.318;2022-12-18T07:53:38;34.10;;;17.10;;
3916;SDS011;1973;50.518;7.318;2022-12-18T07:56:07;35.20;;;17.97;;
3916;SDS011;1973;50.518;7.318;2022-12-18T07:58:54;32.67;;;17.30;;
3916;SDS011;1973;50.518;7.318;2022-12-18T08:01:21;40.10;;;17.23;;
3916;SDS011;1973;50.518;7.318;2022-12-18T08:03:48;34.20;;;18.37;;
3916;SDS011;1973;50.518;7.318;2022-12-18T08:06:17;32.63;;;15.93;;
3916;SDS011;1973;50.518;7.318;2022-12-18T08:08:44;34.20;;;16.63;;
3916;SDS011;1973;50.518;7.318;2022-12-18T08:11:10;31.77;;;16.30;;
3916;SDS011;1973;50.518;7.318;2022-12-18T08:13:37;32.53;;;16.77;;
3916;SDS011;1973;50.518;7.318;2022-12-18T08:16:05;38.67;;;18.70;;
3916;SDS011;1973;50.518;7.318;2022-12-18T08:18:33;35.57;;;19.27;;
3916;SDS011;1973;50.518;7.318;2022-12-18T08:21:11;34.27;;;17.70;;
3916;SDS011;1973;50.518;7.318;2022-12-18T08:23:39;38.60;;;19.50;;
3916;SDS011;1973;50.518;7.318;2022-12-18T08:26:09;41.90;;;20.07;;
3916;SDS011;1973;50.518;7.318;2022-12-18T08:28:36;34.37;;;19.07;;
3916;SDS011;1973;50.518;7.318;2022-12-18T08:31:03;31.77;;;18.27;;
3916;SDS011;1973;50.518;7.318;2022-12-18T08:33:30;37.40;;;18.47;;
3916;SDS011;1973;50.518;7.318;2022-12-18T08:36:00;36.30;;;18.40;;
3916;SDS011;1973;50.518;7.318;2022-12-18T08:38:28;37.70;;;20.17;;
3916;SDS011;1973;50.518;7.318;2022-12-18T08:41:01;33.93;;;19.07;;
3916;SDS011;1973;50.518;7.318;2022-12-18T08:43:30;41.60;;;20.50;;
3916;SDS011;1973;50.518;7.318;2022-12-18T08:46:15;38.43;;;18.63;;
3916;SDS011;1973;50.518;7.318;2022-12-18T08:48:43;36.53;;;17.83;;
3916;SDS011;1973;50.518;7.318;2022-12-18T08:51:09;37.13;;;18.10;;
3916;SDS011;1973;50.518;7.318;2022-12-18T08:53:36;42.07;;;20.83;;
3916;SDS011;1973;50.518;7.318;2022-12-18T08:56:04;39.80;;;20.23;;
3916;SDS011;1973;50.518;7.318;2022-12-18T08:58:31;42.60;;;21.20;;
3916;SDS011;1973;50.518;7.318;2022-12-18T09:01:01;35.70;;;18.50;;
3916;SDS011;1973;50.518;7.318;2022-12-18T09:03:29;44.43;;;19.30;;
3916;SDS011;1973;50.518;7.318;2022-12-18T09:05:55;34.20;;;19.67;;
3916;SDS011;1973;50.518;7.318;2022-12-18T09:08:22;36.60;;;18.83;;
3916;SDS011;1973;50.518;7.318;2022-12-18T09:10:49;36.20;;;18.90;;
3916;SDS011;1973;50.518;7.318;2022-12-18T09:13:17;39.23;;;18.80;;
3916;SDS011;1973;50.518;7.318;2022-12-18T09:15:45;35.47;;;18.70;;
3916;SDS011;1973;50.518;7.318;2022-12-18T09:18:14;37.27;;;20.87;;
3916;SDS011;1973;50.518;7.318;2022-12-18T09:20:42;35.30;;;19.70;;
3916;SDS011;1973;50.518;7.318;2022-12-18T09:23:09;38.90;;;19.40;;
3916;SDS011;1973;50.518;7.318;2022-12-18T09:25:36;36.63;;;19.77;;
3916;SDS011;1973;50.518;7.318;2022-12-18T09:28:09;38.23;;;20.40;;
3916;SDS011;1973;50.518;7.318;2022-12-18T09:30:38;41.80;;;21.27;;
3916;SDS011;1973;50.518;7.318;2022-12-18T09:33:10;37.93;;;20.90;;
3916;SDS011;1973;50.518;7.318;2022-12-18T09:35:37;41.27;;;21.70;;
3916;SDS011;1973;50.518;7.318;2022-12-18T09:38:05;38.60;;;20.57;;
3916;SDS011;1973;50.518;7.318;2022-12-18T09:40:36;43.83;;;21.13;;
3916;SDS011;1973;50.518;7.318;2022-12-18T09:43:10;36.33;;;19.20;;
3916;SDS011;1973;50.518;7.318;2022-12-18T09:46:02;36.47;;;19.80;;
3916;SDS011;1973;50.518;7.318;2022-12-18T09:48:34;40.87;;;22.43;;
3916;SDS011;1973;50.518;7.318;2022-12-18T09:51:05;37.37;;;20.87;;
3916;SDS011;1973;50.518;7.318;2022-12-18T09:53:40;39.47;;;22.37;;
3916;SDS011;1973;50.518;7.318;2022-12-18T09:56:12;37.17;;;21.40;;
3916;SDS011;1973;50.518;7.318;2022-12-18T09:59:00;42.30;;;22.90;;
3916;SDS011;1973;50.518;7.318;2022-12-18T10:01:28;37.60;;;20.63;;
3916;SDS011;1973;50.518;7.318;2022-12-18T10:04:08;39.80;;;21.50;;
3916;SDS011;1973;50.518;7.318;2022-12-18T10:06:38;44.40;;;23.47;;
3916;SDS011;1973;50.518;7.318;2022-12-18T10:09:20;33.60;;;19.50;;
3916;SDS011;1973;50.518;7.318;2022-12-18T10:15:04;64.27;;;33.30;;
3916;SDS011;1973;50.518;7.318;2022-12-18T10:17:46;57.10;;;27.53;;
3916;SDS011;1973;50.518;7.318;2022-12-18T10:26:05;43.57;;;24.83;;
3916;SDS011;1973;50.518;7.318;2022-12-18T10:28:37;42.13;;;22.37;;
3916;SDS011;1973;50.518;7.318;2022-12-18T10:31:06;41.93;;;23.27;;
3916;SDS011;1973;50.518;7.318;2022-12-18T10:33:34;37.97;;;22.23;;
3916;SDS011;1973;50.518;7.318;2022-12-18T10:36:00;37.83;;;21.77;;
3916;SDS011;1973;50.518;7.318;2022-12-18T10:38:28;40.70;;;20.60;;
3916;SDS011;1973;50.518;7.318;2022-12-18T10:40:59;41.40;;;21.80;;
3916;SDS011;1973;50.518;7.318;2022-12-18T10:43:27;46.17;;;22.10;;
3916;SDS011;1973;50.518;7.318;2022-12-18T10:46:04;36.63;;;21.13;;
3916;SDS011;1973;50.518;7.318;2022-12-18T10:51:26;33.50;;;20.40;;
3916;SDS011;1973;50.518;7.318;2022-12-18T10:53:57;41.63;;;23.40;;
3916;SDS011;1973;50.518;7.318;2022-12-18T10:56:28;37.70;;;20.90;;
3916;SDS011;1973;50.518;7.318;2022-12-18T11:01:33;39.83;;;21.83;;
3916;SDS011;1973;50.518;7.318;2022-12-18T11:04:25;36.70;;;21.70;;
3916;SDS011;1973;50.518;7.318;2022-12-18T11:06:57;39.07;;;22.67;;
3916;SDS011;1973;50.518;7.318;2022-12-18T11:09:32;41.57;;;23.03;;
3916;SDS011;1973;50.518;7.318;2022-12-18T11:12:03;40.60;;;22.23;;
3916;SDS011;1973;50.518;7.318;2022-12-18T11:17:22;41.87;;;24.10;;
3916;SDS011;1973;50.518;7.318;2022-12-18T11:19:57;41.80;;;24.70;;
3916;SDS011;1973;50.518;7.318;2022-12-18T11:22:26;40.43;;;22.63;;
3916;SDS011;1973;50.518;7.318;2022-12-18T11:25:01;39.80;;;22.10;;
3916;SDS011;1973;50.518;7.318;2022-12-18T11:30:31;36.40;;;22.07;;
3916;SDS011;1973;50.518;7.318;2022-12-18T11:33:06;35.87;;;22.70;;
3916;SDS011;1973;50.518;7.318;2022-12-18T11:38:40;36.00;;;22.00;;
3916;SDS011;1973;50.518;7.318;2022-12-18T11:44:34;35.40;;;21.77;;
3916;SDS011;1973;50.518;7.318;2022-12-18T11:50:13;38.27;;;24.83;;
3916;SDS011;1973;50.518;7.318;2022-12-18T11:52:42;40.37;;;23.67;;
3916;SDS011;1973;50.518;7.318;2022-12-18T11:55:27;35.03;;;21.93;;
3916;SDS011;1973;50.518;7.318;2022-12-18T12:01:12;37.17;;;21.77;;
3916;SDS011;1973;50.518;7.318;2022-12-18T12:09:28;36.93;;;23.90;;
3916;SDS011;1973;50.518;7.318;2022-12-18T12:15:33;40.60;;;23.73;;
3916;SDS011;1973;50.518;7.318;2022-12-18T12:18:19;44.73;;;25.63;;
3916;SDS011;1973;50.518;7.318;2022-12-18T12:23:53;44.60;;;27.80;;
3916;SDS011;1973;50.518;7.318;2022-12-18T12:35:25;43.60;;;23.57;;
3916;SDS011;1973;50.518;7.318;2022-12-18T12:40:56;40.20;;;24.20;;
3916;SDS011;1973;50.518;7.318;2022-12-18T12:51:45;40.30;;;24.17;;
3916;SDS011;1973;50.518;7.318;2022-12-18T12:54:11;41.70;;;24.10;;
3916;SDS011;1973;50.518;7.318;2022-12-18T12:56:48;39.40;;;22.93;;
3916;SDS011;1973;50.518;7.318;2022-12-18T12:59:30;36.90;;;22.93;;
3916;SDS011;1973;50.518;7.318;2022-12-18T13:02:18;40.63;;;22.40;;
3916;SDS011;1973;50.518;7.318;2022-12-18T13:07:46;39.30;;;24.17;;
3916;SDS011;1973;50.518;7.318;2022-12-18T13:10:26;40.73;;;22.60;;
3916;SDS011;1973;50.518;7.318;2022-12-18T13:13:14;36.60;;;22.00;;
3916;SDS011;1973;50.518;7.318;2022-12-18T13:16:04;38.17;;;21.17;;
3916;SDS011;1973;50.518;7.318;2022-12-18T13:18:32;32.90;;;20.00;;
3916;SDS011;1973;50.518;7.318;2022-12-18T13:23:33;40.63;;;22.90;;
3916;SDS011;1973;50.518;7.318;2022-12-18T13:30:59;39.23;;;23.03;;
3916;SDS011;1973;50.518;7.318;2022-12-18T13:36:10;39.33;;;24.00;;
3916;SDS011;1973;50.518;7.318;2022-12-18T13:38:40;42.10;;;25.50;;
3916;SDS011;1973;50.518;7.318;2022-12-18T13:43:43;41.00;;;23.40;;
3916;SDS011;1973;50.518;7.318;2022-12-18T13:46:29;40.43;;;23.80;;
3916;SDS011;1973;50.518;7.318;2022-12-18T13:51:42;38.03;;;22.73;;
3916;SDS011;1973;50.518;7.318;2022-12-18T13:57:01;35.90;;;21.70;;
3916;SDS011;1973;50.518;7.318;2022-12-18T13:59:35;35.70;;;21.10;;
3916;SDS011;1973;50.518;7.318;2022-12-18T14:02:25;37.80;;;22.03;;
3916;SDS011;1973;50.518;7.318;2022-12-18T14:04:54;34.97;;;21.60;;
3916;SDS011;1973;50.518;7.318;2022-12-18T14:07:22;36.20;;;20.83;;
3916;SDS011;1973;50.518;7.318;2022-12-18T14:09:52;37.93;;;21.30;;
3916;SDS011;1973;50.518;7.318;2022-12-18T14:12:47;35.00;;;21.57;;
3916;SDS011;1973;50.518;7.318;2022-12-18T14:21:01;37.37;;;23.10;;
3916;SDS011;1973;50.518;7.318;2022-12-18T14:23:34;35.70;;;20.83;;
3916;SDS011;1973;50.518;7.318;2022-12-18T14:26:01;38.40;;;21.80;;
3916;SDS011;1973;50.518;7.318;2022-12-18T14:28:31;34.70;;;22.23;;
3916;SDS011;1973;50.518;7.318;2022-12-18T14:30:58;34.30;;;21.20;;
3916;SDS011;1973;50.518;7.318;2022-12-18T14:33:25;39.50;;;22.33;;
3916;SDS011;1973;50.518;7.318;2022-12-18T14:35:54;34.97;;;22.60;;
3916;SDS011;1973;50.518;7.318;2022-12-18T14:38:27;38.63;;;22.50;;
3916;SDS011;1973;50.518;7.318;2022-12-18T14:40:57;36.63;;;22.67;;
3916;SDS011;1973;50.518;7.318;2022-12-18T14:43:24;34.20;;;21.67;;
3916;SDS011;1973;50.518;7.318;2022-12-18T14:45:52;39.30;;;22.57;;
3916;SDS011;1973;50.518;7.318;2022-12-18T14:48:20;34.10;;;21.93;;
3916;SDS011;1973;50.518;7.318;2022-12-18T14:58:59;41.90;;;23.87;;
3916;SDS011;1973;50.518;7.318;2022-12-18T15:01:37;33.33;;;20.47;;
3916;SDS011;1973;50.518;7.318;2022-12-18T15:07:17;34.93;;;21.40;;
3916;SDS011;1973;50.518;7.318;2022-12-18T15:12:34;37.20;;;21.70;;
3916;SDS011;1973;50.518;7.318;2022-12-18T15:18:00;40.53;;;22.77;;
3916;SDS011;1973;50.518;7.318;2022-12-18T15:20:28;39.17;;;23.80;;
3916;SDS011;1973;50.518;7.318;2022-12-18T15:22:58;37.60;;;22.50;;
3916;SDS011;1973;50.518;7.318;2022-12-18T15:25:35;38.93;;;22.57;;
3916;SDS011;1973;50.518;7.318;2022-12-18T15:28:04;34.13;;;21.13;;
3916;SDS011;1973;50.518;7.318;2022-12-18T15:36:20;36.40;;;21.67;;
3916;SDS011;1973;50.518;7.318;2022-12-18T15:38:52;40.97;;;25.00;;
3916;SDS011;1973;50.518;7.318;2022-12-18T15:41:31;39.40;;;23.30;;
3916;SDS011;1973;50.518;7.318;2022-12-18T15:44:01;44.23;;;24.27;;
3916;SDS011;1973;50.518;7.318;2022-12-18T15:46:28;41.67;;;25.20;;
3916;SDS011;1973;50.518;7.318;2022-12-18T15:48:57;38.00;;;23.37;;
3916;SDS011;1973;50.518;7.318;2022-12-18T15:51:28;38.60;;;23.13;;
3916;SDS011;1973;50.518;7.318;2022-12-18T15:53:59;39.37;;;22.83;;
3916;SDS011;1973;50.518;7.318;2022-12-18T15:56:29;40.77;;;24.17;;
3916;SDS011;1973;50.518;7.318;2022-12-18T15:59:15;36.30;;;21.77;;
3916;SDS011;1973;50.518;7.318;2022-12-18T16:01:45;40.47;;;23.73;;
3916;SDS011;1973;50.518;7.318;2022-12-18T16:04:14;42.07;;;22.80;;
3916;SDS011;1973;50.518;7.318;2022-12-18T16:06:42;37.93;;;21.07;;
3916;SDS011;1973;50.518;7.318;2022-12-18T16:09:29;39.47;;;23.43;;
3916;SDS011;1973;50.518;7.318;2022-12-18T16:11:55;40.70;;;23.07;;
3916;SDS011;1973;50.518;7.318;2022-12-18T16:14:25;40.33;;;22.70;;
3916;SDS011;1973;50.518;7.318;2022-12-18T16:16:57;42.13;;;23.60;;
3916;SDS011;1973;50.518;7.318;2022-12-18T16:19:25;43.47;;;23.27;;
3916;SDS011;1973;50.518;7.318;2022-12-18T16:21:54;42.53;;;23.63;;
3916;SDS011;1973;50.518;7.318;2022-12-18T16:24:23;43.73;;;24.10;;
3916;SDS011;1973;50.518;7.318;2022-12-18T16:26:52;40.50;;;23.73;;
3916;SDS011;1973;50.518;7.318;2022-12-18T16:29:20;46.87;;;23.90;;
3916;SDS011;1973;50.518;7.318;2022-12-18T16:31:50;45.20;;;24.67;;
3916;SDS011;1973;50.518;7.318;2022-12-18T16:34:19;42.17;;;24.30;;
3916;SDS011;1973;50.518;7.318;2022-12-18T16:36:57;42.20;;;23.70;;
3916;SDS011;1973;50.518;7.318;2022-12-18T16:39:31;45.83;;;24.50;;
3916;SDS011;1973;50.518;7.318;2022-12-18T16:42:04;45.63;;;24.77;;
3916;SDS011;1973;50.518;7.318;2022-12-18T16:44:34;49.37;;;26.07;;
3916;SDS011;1973;50.518;7.318;2022-12-18T16:47:02;45.70;;;25.40;;
3916;SDS011;1973;50.518;7.318;2022-12-18T16:49:30;47.37;;;26.00;;
3916;SDS011;1973;50.518;7.318;2022-12-18T16:51:56;47.87;;;26.00;;
3916;SDS011;1973;50.518;7.318;2022-12-18T16:54:23;42.23;;;25.57;;
3916;SDS011;1973;50.518;7.318;2022-12-18T16:56:50;43.23;;;24.53;;
3916;SDS011;1973;50.518;7.318;2022-12-18T16:59:17;48.83;;;26.20;;
3916;SDS011;1973;50.518;7.318;2022-12-18T17:01:45;48.40;;;27.83;;
3916;SDS011;1973;50.518;7.318;2022-12-18T17:04:12;46.20;;;25.93;;
3916;SDS011;1973;50.518;7.318;2022-12-18T17:06:40;46.77;;;23.93;;
3916;SDS011;1973;50.518;7.318;2022-12-18T17:09:12;46.33;;;25.93;;
3916;SDS011;1973;50.518;7.318;2022-12-18T17:11:41;43.70;;;24.10;;
3916;SDS011;1973;50.518;7.318;2022-12-18T17:14:09;52.03;;;25.30;;
3916;SDS011;1973;50.518;7.318;2022-12-18T17:16:38;42.70;;;25.10;;
3916;SDS011;1973;50.518;7.318;2022-12-18T17:19:05;45.90;;;25.37;;
3916;SDS011;1973;50.518;7.318;2022-12-18T17:21:40;52.70;;;27.90;;
3916;SDS011;1973;50.518;7.318;2022-12-18T17:24:07;49.77;;;28.20;;
3916;SDS011;1973;50.518;7.318;2022-12-18T17:26:33;42.77;;;25.03;;
3916;SDS011;1973;50.518;7.318;2022-12-18T17:29:00;46.73;;;26.80;;